Time;durP1;ratioP1;P1;durP2;ratioP2;P2;SDS_P1;SDS_P2;PMS_P1;PMS_P2;Temp;Humidity;BMP_temperature;BMP_pressure;BME280_temperature;BME280_humidity;BME280_pressure;Samples;Min_cycle;Max_cycle;Signal;HPM_P1;HPM_P2
2024/01/17 00:00:20;;;;;;;27.10;12.50;;;;;;;-6.42;63.68;101209.21;107272;1255;99095;-69
2024/01/17 00:03:08;;;;;;;28.70;12.20;;;;;;;-6.39;63.67;101207.45;107259;1256;114422;-69
2024/01/17 00:05:37;;;;;;;13.10;7.50;;;;;;;-6.35;63.85;101210.71;107274;1257;108244;-69
2024/01/17 00:08:07;;;;;;;21.10;9.90;;;;;;;-6.23;64.30;101205.51;107232;1255;107996;-67
2024/01/17 00:10:35;;;;;;;27.10;11.10;;;;;;;-6.07;64.45;101210.38;107269;1256;99282;-69
2024/01/17 00:13:04;;;;;;;23.40;10.50;;;;;;;-5.91;64.46;101213.63;107298;1257;99077;-69
2024/01/17 00:15:32;;;;;;;12.90;7.30;;;;;;;-5.73;64.92;101212.16;107282;1256;113481;-68
2024/01/17 00:18:00;;;;;;;23.90;11.10;;;;;;;-5.54;65.05;101210.52;107315;1257;107391;-68
2024/01/17 00:20:29;;;;;;;24.00;10.80;;;;;;;-5.41;64.99;101213.80;107160;1256;108161;-69
2024/01/17 00:22:57;;;;;;;12.30;7.20;;;;;;;-5.28;65.03;101212.38;107181;1256;99250;-68
2024/01/17 00:25:25;;;;;;;20.20;9.40;;;;;;;-5.20;64.60;101216.44;107245;1256;99052;-69
2024/01/17 00:27:53;;;;;;;22.90;9.40;;;;;;;-5.12;65.14;101214.39;107265;1256;112839;-70
2024/01/17 00:30:23;;;;;;;25.40;10.80;;;;;;;-5.07;64.41;101215.02;107226;1256;108315;-69
2024/01/17 00:32:51;;;;;;;23.00;11.50;;;;;;;-5.09;64.21;101216.80;107238;1259;108789;-67
2024/01/17 00:35:20;;;;;;;28.80;12.20;;;;;;;-5.17;63.92;101214.66;107258;1259;99346;-70
2024/01/17 00:37:48;;;;;;;15.20;8.00;;;;;;;-5.26;63.59;101212.52;107257;1255;99734;-68
2024/01/17 00:40:17;;;;;;;30.20;13.30;;;;;;;-5.35;63.55;101210.56;107253;1257;113239;-69
2024/01/17 00:42:45;;;;;;;29.50;12.80;;;;;;;-5.45;62.85;101212.62;107187;1256;108371;-68
2024/01/17 00:45:14;;;;;;;36.50;14.60;;;;;;;-5.63;62.58;101214.30;107176;1257;107964;-68
2024/01/17 00:47:45;;;;;;;17.30;9.80;;;;;;;-5.71;62.75;101212.31;107228;1257;99384;-68
2024/01/17 00:50:14;;;;;;;28.50;13.80;;;;;;;-5.73;63.30;101212.52;107289;1257;99218;-68
2024/01/17 00:52:43;;;;;;;34.50;12.90;;;;;;;-5.74;63.34;101210.62;107278;1257;113485;-68
2024/01/17 00:55:12;;;;;;;30.30;13.90;;;;;;;-5.77;62.73;101212.58;107218;1257;108637;-70
2024/01/17 00:57:40;;;;;;;26.80;12.90;;;;;;;-5.81;63.07;101210.70;107246;1257;107737;-69
2024/01/17 01:00:08;;;;;;;28.10;12.50;;;;;;;-5.81;63.23;101210.87;107194;1256;99300;-68
2024/01/17 01:02:37;;;;;;;34.20;14.50;;;;;;;-5.82;63.33;101216.31;107308;1256;99204;-69
2024/01/17 01:05:06;;;;;;;32.90;13.40;;;;;;;-5.82;63.57;101215.79;107213;1257;113214;-67
2024/01/17 01:07:34;;;;;;;31.70;13.10;;;;;;;-5.78;63.83;101218.17;107218;1256;107573;-69
2024/01/17 01:10:04;;;;;;;27.80;11.70;;;;;;;-5.77;63.69;101213.98;107249;1256;107626;-68
2024/01/17 01:12:33;;;;;;;33.70;13.90;;;;;;;-5.79;63.44;101220.30;107231;1257;99192;-68
2024/01/17 01:15:01;;;;;;;27.30;13.50;;;;;;;-5.81;63.30;101216.13;107224;1256;99644;-70
2024/01/17 01:17:29;;;;;;;33.60;14.60;;;;;;;-5.82;63.58;101219.61;107332;1257;111047;-69
2024/01/17 01:19:58;;;;;;;36.80;14.90;;;;;;;-5.83;63.50;101218.60;107210;1256;107660;-68
2024/01/17 01:22:27;;;;;;;34.00;15.50;;;;;;;-5.87;63.43;101216.19;107179;1260;109150;-69
2024/01/17 01:24:55;;;;;;;35.30;16.40;;;;;;;-5.93;63.01;101209.64;107231;1257;99351;-69
2024/01/17 01:27:23;;;;;;;40.40;15.90;;;;;;;-6.00;63.16;101213.92;107271;1257;99202;-68
2024/01/17 01:29:52;;;;;;;33.70;15.80;;;;;;;-6.06;62.84;101210.71;107184;1256;113113;-69
2024/01/17 01:32:20;;;;;;;41.50;16.00;;;;;;;-6.08;63.00;101211.26;107280;1256;108224;-67
2024/01/17 01:34:49;;;;;;;43.00;16.60;;;;;;;-6.08;62.84;101207.59;107218;1257;107900;-68
2024/01/17 01:37:17;;;;;;;35.90;16.00;;;;;;;-6.14;63.02;101201.22;107246;1257;99177;-69
2024/01/17 01:39:45;;;;;;;37.50;16.80;;;;;;;-6.16;62.97;101203.67;107258;1257;100289;-68
2024/01/17 01:42:14;;;;;;;41.90;16.80;;;;;;;-6.15;63.06;101205.07;107301;1257;113193;-69
2024/01/17 01:44:45;;;;;;;39.40;16.50;;;;;;;-6.13;63.12;101205.91;107245;1257;108864;-69
2024/01/17 01:47:16;;;;;;;37.60;16.70;;;;;;;-6.16;63.12;101206.81;107257;1259;108435;-69
2024/01/17 01:49:47;;;;;;;38.40;16.20;;;;;;;-6.17;63.17;101203.70;107224;1257;99233;-70
2024/01/17 01:52:17;;;;;;;41.70;16.60;;;;;;;-6.18;63.10;101200.90;107258;1257;99301;-69
2024/01/17 01:54:47;;;;;;;41.20;18.10;;;;;;;-6.17;63.30;101197.05;107350;1257;112876;-68
2024/01/17 01:57:16;;;;;;;44.90;17.60;;;;;;;-6.19;63.31;101197.43;107266;1259;105794;-69
2024/01/17 01:59:46;;;;;;;47.60;18.20;;;;;;;-6.20;63.34;101199.71;107244;1259;107166;-69
2024/01/17 02:02:14;;;;;;;46.80;19.40;;;;;;;-6.18;63.19;101204.91;107244;1255;99218;-69
2024/01/17 02:04:43;;;;;;;38.00;17.40;;;;;;;-6.16;63.15;101204.55;107289;1257;99273;-67
2024/01/17 02:07:14;;;;;;;44.10;18.50;;;;;;;-6.13;63.05;101200.33;107265;1257;113402;-68
2024/01/17 02:09:44;;;;;;;39.70;16.80;;;;;;;-6.10;63.01;101203.27;107274;1257;108537;-68
2024/01/17 02:12:13;;;;;;;36.30;16.70;;;;;;;-6.10;63.09;101206.21;107274;1255;107950;-68
2024/01/17 02:14:41;;;;;;;37.10;17.30;;;;;;;-6.08;62.72;101209.17;107296;1256;99183;-69
2024/01/17 02:17:11;;;;;;;45.70;17.60;;;;;;;-6.09;62.65;101210.92;107285;1257;99819;-68
2024/01/17 02:19:43;;;;;;;41.30;17.60;;;;;;;-6.10;62.68;101211.28;107277;1259;111587;-68
2024/01/17 02:22:11;;;;;;;40.00;16.20;;;;;;;-6.11;62.81;101214.62;107272;1256;108611;-68
2024/01/17 02:24:40;;;;;;;43.90;17.30;;;;;;;-6.16;62.36;101214.86;107101;1257;108532;-71
2024/01/17 02:27:08;;;;;;;36.80;16.70;;;;;;;-6.22;62.40;101206.20;107261;1257;99189;-71
2024/01/17 02:29:37;;;;;;;48.70;20.00;;;;;;;-6.24;62.43;101199.58;107241;1257;99308;-70
2024/01/17 02:32:07;;;;;;;43.40;17.30;;;;;;;-6.23;62.64;101196.09;107253;1257;112635;-68
2024/01/17 02:34:35;;;;;;;40.80;17.60;;;;;;;-6.24;62.31;101196.45;107248;1257;108342;-69
2024/01/17 02:37:08;;;;;;;45.60;20.10;;;;;;;-6.22;62.81;101204.10;107200;1257;107792;-68
2024/01/17 02:39:36;;;;;;;56.10;18.90;;;;;;;-6.17;63.03;101208.05;107246;1256;99243;-68
2024/01/17 02:42:05;;;;;;;47.50;19.40;;;;;;;-6.12;62.87;101211.66;107279;1257;99201;-67
2024/01/17 02:44:33;;;;;;;42.40;18.70;;;;;;;-6.07;62.94;101215.09;107275;1257;112320;-67
2024/01/17 02:47:02;;;;;;;46.80;18.20;;;;;;;-6.02;63.05;101218.34;107168;1256;108434;-67
2024/01/17 02:49:30;;;;;;;44.20;18.70;;;;;;;-5.99;62.99;101224.06;107208;1256;106954;-67
2024/01/17 02:51:59;;;;;;;49.90;19.60;;;;;;;-5.98;63.14;101223.33;107230;1256;99343;-68
2024/01/17 02:54:27;;;;;;;44.90;20.00;;;;;;;-5.97;62.94;101218.44;107270;1257;99261;-69
2024/01/17 02:56:55;;;;;;;47.40;20.30;;;;;;;-5.97;63.02;101215.98;107270;1257;113283;-68
2024/01/17 02:59:24;;;;;;;47.90;20.70;;;;;;;-5.96;62.92;101208.80;107269;1255;108284;-67
2024/01/17 03:01:53;;;;;;;46.60;20.50;;;;;;;-5.99;62.73;101207.11;107239;1257;107819;-69
2024/01/17 03:04:21;;;;;;;51.80;21.60;;;;;;;-6.01;62.92;101208.91;107237;1257;99435;-69
2024/01/17 03:06:51;;;;;;;48.00;19.00;;;;;;;-6.01;62.83;101208.55;107249;1257;99203;-68
2024/01/17 03:09:19;;;;;;;40.00;18.90;;;;;;;-6.00;62.85;101210.98;107254;1257;113594;-69
2024/01/17 03:11:49;;;;;;;47.50;20.00;;;;;;;-6.03;62.86;101209.27;107298;1259;107939;-69
2024/01/17 03:14:17;;;;;;;47.60;19.50;;;;;;;-6.04;62.77;101206.67;107235;1257;107891;-70
2024/01/17 03:16:45;;;;;;;48.10;19.20;;;;;;;-6.06;62.71;101207.93;107208;1261;99358;-70
2024/01/17 03:19:15;;;;;;;44.00;19.40;;;;;;;-6.09;63.03;101204.82;107315;1257;99240;-68
2024/01/17 03:21:49;;;;;;;48.60;19.10;;;;;;;-6.13;62.90;101207.30;107223;1257;112377;-69
2024/01/17 03:24:17;;;;;;;41.90;18.30;;;;;;;-6.16;63.12;101207.52;107197;1256;108421;-69
2024/01/17 03:26:46;;;;;;;45.70;18.60;;;;;;;-6.14;62.91;101207.52;107231;1257;108181;-69
2024/01/17 03:29:14;;;;;;;45.60;19.10;;;;;;;-6.11;62.87;101206.06;107271;1257;99338;-69
2024/01/17 03:31:43;;;;;;;43.00;19.20;;;;;;;-6.09;63.11;101206.21;107322;1256;99293;-69
2024/01/17 03:34:11;;;;;;;43.90;18.60;;;;;;;-6.06;63.20;101202.51;107262;1257;113348;-68
2024/01/17 03:36:40;;;;;;;48.60;19.40;;;;;;;-6.03;63.45;101200.89;107252;1257;107859;-69
2024/01/17 03:39:09;;;;;;;47.80;21.20;;;;;;;-5.96;63.31;101202.34;107225;1257;107242;-69
2024/01/17 03:41:37;;;;;;;53.40;19.50;;;;;;;-5.93;63.45;101204.40;107207;1259;99180;-69
2024/01/17 03:44:06;;;;;;;52.60;20.00;;;;;;;-5.91;63.07;101202.45;107279;1257;99797;-68
2024/01/17 03:46:34;;;;;;;47.00;20.00;;;;;;;-5.89;63.13;101205.92;107232;1256;112387;-69
2024/01/17 03:49:02;;;;;;;44.40;17.80;;;;;;;-5.92;63.40;101204.74;107237;1260;109103;-68
2024/01/17 03:51:31;;;;;;;37.70;17.00;;;;;;;-5.94;63.30;101199.88;107245;1257;108600;-69
2024/01/17 03:53:59;;;;;;;47.80;19.40;;;;;;;-5.95;63.54;101201.09;107259;1257;99188;-68
2024/01/17 03:56:28;;;;;;;48.50;19.30;;;;;;;-5.96;63.56;101205.83;107240;1257;99218;-69
2024/01/17 03:58:56;;;;;;;45.40;18.90;;;;;;;-5.99;63.38;101210.60;107243;1257;113481;-67
2024/01/17 04:01:25;;;;;;;45.60;19.00;;;;;;;-6.01;63.42;101213.09;107264;1257;109353;-67
2024/01/17 04:03:54;;;;;;;56.00;20.10;;;;;;;-6.06;63.08;101220.32;107240;1257;107972;-69
2024/01/17 04:06:22;;;;;;;43.20;18.70;;;;;;;-6.16;62.91;101233.89;107240;1257;99300;-70
2024/01/17 04:08:51;;;;;;;41.50;18.70;;;;;;;-6.23;62.97;101239.02;107278;1256;99157;-69
2024/01/17 04:11:19;;;;;;;44.00;18.50;;;;;;;-6.28;63.30;101243.98;107211;1257;113245;-68
2024/01/17 04:13:47;;;;;;;44.10;19.20;;;;;;;-6.32;63.21;101243.48;107290;1256;108502;-67
2024/01/17 04:16:16;;;;;;;41.70;17.90;;;;;;;-6.34;63.40;101246.65;107202;1257;107668;-68
2024/01/17 04:18:44;;;;;;;46.60;19.00;;;;;;;-6.37;63.21;101250.00;107243;1257;99278;-68
2024/01/17 04:21:18;;;;;;;43.20;17.30;;;;;;;-6.39;63.24;101249.85;107249;1259;99201;-68
2024/01/17 04:23:48;;;;;;;47.40;18.70;;;;;;;-6.41;63.18;101250.93;107276;1257;111662;-68
2024/01/17 04:26:20;;;;;;;41.60;19.40;;;;;;;-6.43;63.32;101254.09;107275;1257;108161;-68
2024/01/17 04:28:52;;;;;;;45.30;18.70;;;;;;;-6.46;63.52;101252.37;107216;1259;108422;-68
2024/01/17 04:31:29;;;;;;;42.50;18.10;;;;;;;-6.46;63.59;101257.77;107240;1257;99291;-69
2024/01/17 04:34:01;;;;;;;48.10;17.10;;;;;;;-6.44;63.26;101257.75;107288;1259;99086;-69
2024/01/17 04:36:30;;;;;;;40.50;16.90;;;;;;;-6.47;63.44;101258.65;107254;1257;112123;-70
2024/01/17 04:39:00;;;;;;;40.30;15.90;;;;;;;-6.50;63.48;101267.75;107258;1256;106963;-70
2024/01/17 04:41:30;;;;;;;41.30;18.30;;;;;;;-6.56;63.43;101275.67;107272;1259;107654;-69
2024/01/17 04:43:58;;;;;;;42.00;18.30;;;;;;;-6.62;63.46;101280.09;107275;1259;99213;-69
2024/01/17 04:46:27;;;;;;;41.80;17.50;;;;;;;-6.67;63.71;101284.33;107214;1259;99169;-69
2024/01/17 04:48:56;;;;;;;35.90;16.50;;;;;;;-6.69;63.54;101286.79;107236;1260;111600;-70
2024/01/17 04:51:25;;;;;;;38.20;16.20;;;;;;;-6.68;63.76;101292.88;107229;1256;108134;-71
2024/01/17 04:53:54;;;;;;;33.00;16.00;;;;;;;-6.69;63.72;101290.10;107171;1256;107686;-70
2024/01/17 04:56:23;;;;;;;40.90;17.00;;;;;;;-6.74;63.36;101290.48;107169;1260;99201;-70
2024/01/17 04:58:53;;;;;;;42.50;17.20;;;;;;;-6.84;63.51;101295.63;107193;1257;100953;-69
2024/01/17 05:01:21;;;;;;;39.50;17.00;;;;;;;-6.90;63.44;101292.89;107201;1262;112293;-69
2024/01/17 05:03:49;;;;;;;32.80;16.50;;;;;;;-6.92;63.68;101292.02;107255;1259;108212;-70
2024/01/17 05:06:18;;;;;;;35.60;15.70;;;;;;;-6.91;63.82;101291.15;107211;1257;108177;-68
2024/01/17 05:08:46;;;;;;;37.00;15.50;;;;;;;-6.89;63.98;101293.92;107236;1261;99728;-68
2024/01/17 05:11:21;;;;;;;33.40;15.50;;;;;;;-6.88;63.73;101296.19;107060;1256;99290;-68
2024/01/17 05:13:50;;;;;;;42.10;14.90;;;;;;;-6.89;63.85;101302.98;107246;1257;112727;-68
2024/01/17 05:16:18;;;;;;;28.60;12.70;;;;;;;-6.87;63.62;101305.61;107218;1260;108092;-68
2024/01/17 05:18:46;;;;;;;33.80;14.00;;;;;;;-6.86;63.77;101310.64;107256;1260;108251;-68
2024/01/17 05:21:15;;;;;;;30.30;12.80;;;;;;;-6.84;63.81;101320.56;107245;1259;99183;-68
2024/01/17 05:23:43;;;;;;;31.10;14.10;;;;;;;-6.82;63.79;101328.06;107319;1259;99213;-69
2024/01/17 05:26:12;;;;;;;35.10;14.90;;;;;;;-6.84;63.83;101329.11;107222;1257;112803;-69
2024/01/17 05:28:40;;;;;;;33.10;14.40;;;;;;;-6.85;63.93;101332.27;107261;1256;107364;-69
2024/01/17 05:31:10;;;;;;;30.90;14.80;;;;;;;-6.90;63.73;101338.76;107244;1257;108401;-70
2024/01/17 05:33:39;;;;;;;31.50;14.60;;;;;;;-6.94;63.88;101339.30;107275;1257;99064;-70
2024/01/17 05:36:07;;;;;;;45.90;20.30;;;;;;;-6.98;63.83;101342.30;107258;1259;99275;-68
2024/01/17 05:38:36;;;;;;;57.50;23.60;;;;;;;-7.03;63.79;101342.16;107269;1258;113215;-68
2024/01/17 05:41:05;;;;;;;44.90;20.80;;;;;;;-7.01;64.01;101344.76;107240;1257;107918;-68
2024/01/17 05:43:33;;;;;;;38.50;16.80;;;;;;;-6.97;64.04;101342.29;107202;1263;108763;-69
2024/01/17 05:46:02;;;;;;;32.40;15.00;;;;;;;-6.98;63.83;101347.52;107169;1260;99295;-69
2024/01/17 05:48:30;;;;;;;35.70;15.50;;;;;;;-7.00;63.72;101347.38;107279;1257;99864;-69
2024/01/17 05:50:59;;;;;;;30.10;14.70;;;;;;;-7.02;63.74;101352.09;107251;1260;112340;-68
2024/01/17 05:53:28;;;;;;;38.20;13.60;;;;;;;-7.01;64.01;101356.09;107260;1258;108889;-71
2024/01/17 05:55:56;;;;;;;26.20;12.50;;;;;;;-6.98;64.04;101358.52;107208;1255;107296;-70
2024/01/17 05:58:24;;;;;;;26.30;12.70;;;;;;;-6.96;64.31;101354.66;107232;1262;99324;-69
2024/01/17 06:00:53;;;;;;;37.70;15.10;;;;;;;-6.89;64.40;101347.64;107246;1260;99148;-70
2024/01/17 06:03:21;;;;;;;56.40;42.40;;;;;;;-6.85;64.57;101351.97;107213;1260;113494;-68
2024/01/17 06:05:51;;;;;;;29.90;15.00;;;;;;;-6.82;64.43;101350.04;107013;1263;108369;-69
2024/01/17 06:08:20;;;;;;;32.80;13.30;;;;;;;-6.75;64.43;101355.39;107239;1260;108215;-68
2024/01/17 06:10:48;;;;;;;33.70;15.40;;;;;;;-6.69;64.29;101357.45;107296;1257;99208;-69
2024/01/17 06:13:16;;;;;;;33.40;13.80;;;;;;;-6.69;64.18;101361.63;107274;1260;99137;-69
2024/01/17 06:15:44;;;;;;;24.40;11.60;;;;;;;-6.69;64.30;101367.73;107258;1260;111958;-68
2024/01/17 06:18:13;;;;;;;22.40;12.30;;;;;;;-6.68;64.36;101370.35;107232;1257;107860;-69
2024/01/17 06:20:41;;;;;;;33.00;13.50;;;;;;;-6.67;64.31;101372.07;107273;1262;107847;-69
2024/01/17 06:23:10;;;;;;;35.50;13.30;;;;;;;-6.65;64.38;101372.24;107269;1259;99192;-69
2024/01/17 06:25:38;;;;;;;27.50;13.40;;;;;;;-6.64;64.17;101375.90;107235;1256;99349;-69
2024/01/17 06:28:06;;;;;;;23.90;11.80;;;;;;;-6.64;64.19;101379.39;107287;1260;115057;-69
2024/01/17 06:30:35;;;;;;;26.10;11.80;;;;;;;-6.63;64.14;101375.89;107278;1259;107829;-68
2024/01/17 06:33:04;;;;;;;25.30;11.80;;;;;;;-6.62;64.39;101376.23;107163;1263;107667;-69
2024/01/17 06:35:33;;;;;;;23.30;10.80;;;;;;;-6.61;64.24;101368.55;107216;1258;99100;-70
2024/01/17 06:38:02;;;;;;;24.60;11.30;;;;;;;-6.58;64.23;101365.39;107249;1256;99832;-68
2024/01/17 06:40:30;;;;;;;24.00;10.80;;;;;;;-6.52;64.67;101366.38;107228;1257;112590;-70
2024/01/17 06:42:59;;;;;;;25.10;11.80;;;;;;;-6.46;64.64;101358.81;107247;1258;107936;-71
2024/01/17 06:45:27;;;;;;;20.70;10.10;;;;;;;-6.41;64.53;101353.55;107214;1263;108350;-69
2024/01/17 06:47:57;;;;;;;25.00;12.40;;;;;;;-6.38;64.29;101352.99;107244;1260;99381;-69
2024/01/17 06:50:26;;;;;;;130.90;16.60;;;;;;;-6.32;64.33;101347.52;107109;1257;99774;-69
2024/01/17 06:52:55;;;;;;;25.70;11.40;;;;;;;-6.25;64.61;101345.73;107222;1260;112758;-69
2024/01/17 06:55:23;;;;;;;22.60;10.70;;;;;;;-6.20;64.51;101349.34;107100;1257;107898;-68
2024/01/17 06:57:51;;;;;;;27.90;12.30;;;;;;;-6.19;63.74;101352.83;107205;1257;109034;-69
2024/01/17 07:00:20;;;;;;;23.80;11.10;;;;;;;-6.15;64.22;101348.59;107240;1261;99218;-71
2024/01/17 07:02:49;;;;;;;26.40;13.50;;;;;;;-6.07;64.35;101353.40;107250;1258;100908;-69
2024/01/17 07:05:17;;;;;;;21.10;11.50;;;;;;;-5.99;64.28;101348.23;107220;1257;113395;-69
2024/01/17 07:07:47;;;;;;;22.20;12.00;;;;;;;-5.84;64.31;101347.00;107235;1257;108467;-71
2024/01/17 07:10:15;;;;;;;22.20;10.50;;;;;;;-5.68;64.23;101342.63;107237;1257;107924;-69
2024/01/17 07:12:44;;;;;;;19.40;10.70;;;;;;;-5.55;64.28;101336.70;107222;1257;99183;-69
2024/01/17 07:15:12;;;;;;;30.80;14.10;;;;;;;-5.38;64.49;101332.99;107272;1259;99730;-69
2024/01/17 07:17:41;;;;;;;36.10;16.00;;;;;;;-5.26;63.97;101329.15;107238;1260;112896;-68
2024/01/17 07:20:10;;;;;;;37.20;17.70;;;;;;;-5.18;63.83;101317.34;107304;1260;108014;-69
2024/01/17 07:22:44;;;;;;;49.40;19.80;;;;;;;-5.09;63.78;101318.07;107253;1257;107214;-68
2024/01/17 07:25:13;;;;;;;63.00;24.40;;;;;;;-4.98;64.01;101308.11;107210;1258;99089;-70
2024/01/17 07:27:44;;;;;;;54.10;22.20;;;;;;;-4.86;63.76;101298.14;107317;1257;99114;-68
2024/01/17 07:30:14;;;;;;;65.60;24.00;;;;;;;-4.73;63.53;101299.67;107280;1256;113107;-69
2024/01/17 07:32:43;;;;;;;64.80;24.40;;;;;;;-4.59;63.76;101296.27;107226;1260;107838;-68
2024/01/17 07:35:12;;;;;;;77.30;26.90;;;;;;;-4.41;63.55;101298.95;107216;1260;107160;-68
2024/01/17 07:37:40;;;;;;;62.80;24.90;;;;;;;-4.23;63.81;101294.42;107150;1256;99307;-68
2024/01/17 07:40:09;;;;;;;69.80;25.30;;;;;;;-4.07;63.54;101295.87;107097;1262;99300;-69
2024/01/17 07:42:37;;;;;;;64.60;26.30;;;;;;;-3.99;63.14;101296.05;106902;1257;112165;-69
2024/01/17 07:45:06;;;;;;;53.80;23.80;;;;;;;-3.89;63.59;101293.40;107250;1257;108519;-69
2024/01/17 07:47:35;;;;;;;49.50;22.50;;;;;;;-3.76;63.05;101296.48;107279;1258;107291;-70
2024/01/17 07:50:04;;;;;;;61.10;23.10;;;;;;;-3.66;62.68;101289.27;107214;1257;99278;-70
2024/01/17 07:52:32;;;;;;;66.20;27.10;;;;;;;-3.59;62.39;101295.61;107259;1260;99349;-69
2024/01/17 07:55:02;;;;;;;60.50;25.80;;;;;;;-3.50;62.49;101302.78;107220;1257;113223;-69
2024/01/17 07:57:33;;;;;;;56.60;24.00;;;;;;;-3.32;62.97;101301.14;107277;1260;107953;-69
2024/01/17 08:00:01;;;;;;;50.40;23.10;;;;;;;-3.14;63.06;101303.02;107213;1260;106959;-69
2024/01/17 08:02:41;;;;;;;55.40;24.50;;;;;;;-3.02;62.93;101303.98;107265;1257;99243;-69
2024/01/17 08:05:12;;;;;;;52.10;22.70;;;;;;;-2.94;62.63;101310.64;107312;1257;99745;-68
2024/01/17 08:07:40;;;;;;;42.40;19.10;;;;;;;-2.92;61.16;101305.51;107249;1260;112480;-69
2024/01/17 08:10:09;;;;;;;38.10;16.70;;;;;;;-2.96;60.65;101307.71;107273;1257;108324;-68
2024/01/17 08:12:37;;;;;;;31.90;16.70;;;;;;;-2.97;60.17;101299.31;107242;1257;107177;-68
2024/01/17 08:15:08;;;;;;;33.80;15.40;;;;;;;-2.99;60.50;101303.89;107247;1257;99188;-68
2024/01/17 08:17:36;;;;;;;36.90;16.70;;;;;;;-2.94;60.43;101305.92;107230;1257;99073;-68
2024/01/17 08:20:07;;;;;;;36.50;17.70;;;;;;;-2.90;60.49;101307.05;107279;1256;113529;-68
2024/01/17 08:22:36;;;;;;;40.30;17.50;;;;;;;-2.81;60.51;101307.54;107272;1260;107683;-68
2024/01/17 08:25:05;;;;;;;54.80;22.00;;;;;;;-2.76;60.31;101306.20;107258;1259;107758;-69
2024/01/17 08:27:33;;;;;;;61.70;23.90;;;;;;;-2.67;60.39;101305.96;107257;1256;99260;-69
2024/01/17 08:30:04;;;;;;;46.20;19.70;;;;;;;-2.54;60.53;101306.35;107312;1256;99291;-69
2024/01/17 08:32:32;;;;;;;46.20;18.80;;;;;;;-2.39;60.45;101306.50;107274;1257;111810;-69
2024/01/17 08:35:01;;;;;;;47.50;18.80;;;;;;;-2.27;60.15;101300.38;107288;1257;106764;-69
2024/01/17 08:37:30;;;;;;;46.20;19.60;;;;;;;-2.17;60.15;101300.98;107253;1260;106672;-67
2024/01/17 08:39:58;;;;;;;55.90;22.10;;;;;;;-2.03;60.41;101300.23;107268;1257;99991;-69
2024/01/17 08:42:26;;;;;;;48.90;18.00;;;;;;;-1.78;60.56;101295.52;107266;1259;99211;-68
2024/01/17 08:44:54;;;;;;;54.10;21.20;;;;;;;-1.37;59.24;101292.56;106732;1257;466273;-68
2024/01/17 08:47:23;;;;;;;54.70;22.20;;;;;;;-0.67;59.20;101281.87;107202;1257;107876;-69
2024/01/17 08:49:53;;;;;;;44.40;20.30;;;;;;;0.28;58.53;101276.23;107211;1260;107711;-67
2024/01/17 08:52:22;;;;;;;47.20;20.70;;;;;;;0.90;57.65;101273.89;107279;1260;99171;-67
2024/01/17 08:54:51;;;;;;;55.20;23.70;;;;;;;1.20;57.28;101269.48;107289;1257;99721;-68
2024/01/17 08:57:19;;;;;;;39.10;17.90;;;;;;;1.50;56.06;101263.27;107261;1257;113668;-68
2024/01/17 08:59:47;;;;;;;30.40;14.60;;;;;;;1.88;55.18;101263.95;107276;1257;108016;-68
2024/01/17 09:02:15;;;;;;;19.40;11.70;;;;;;;2.17;54.36;101268.67;107251;1257;108338;-67
2024/01/17 09:04:44;;;;;;;22.40;12.50;;;;;;;2.48;54.79;101266.90;107291;1257;99197;-68
2024/01/17 09:07:12;;;;;;;30.90;13.60;;;;;;;2.98;54.07;101255.86;107276;1257;99224;-69
2024/01/17 09:09:41;;;;;;;34.80;16.40;;;;;;;3.23;53.69;101255.89;107254;1259;112914;-68
2024/01/17 09:12:12;;;;;;;57.70;32.00;;;;;;;3.52;53.15;101254.58;107262;1257;109768;-67
2024/01/17 09:14:43;;;;;;;27.80;14.30;;;;;;;3.88;51.87;101248.30;107281;1258;107168;-68
2024/01/17 09:17:11;;;;;;;33.50;15.60;;;;;;;4.34;50.67;101240.14;107228;1257;99183;-69
2024/01/17 09:19:41;;;;;;;32.00;14.60;;;;;;;4.76;50.41;101232.65;107303;1257;99181;-68
2024/01/17 09:22:09;;;;;;;25.50;14.20;;;;;;;5.31;50.61;101231.15;107261;1257;112258;-67
2024/01/17 09:24:41;;;;;;;30.20;14.50;;;;;;;5.85;50.41;101229.51;107267;1257;108480;-68
2024/01/17 09:27:09;;;;;;;22.10;12.80;;;;;;;6.45;50.58;101224.54;107240;1260;107913;-69
2024/01/17 09:29:38;;;;;;;26.50;13.00;;;;;;;7.06;48.12;101215.27;107147;1257;99217;-69
2024/01/17 09:32:06;;;;;;;23.90;14.40;;;;;;;7.34;45.88;101215.02;107268;1258;99289;-69
2024/01/17 09:34:36;;;;;;;27.00;13.90;;;;;;;7.64;45.00;101214.19;107272;1258;112513;-68
2024/01/17 09:37:05;;;;;;;22.40;13.40;;;;;;;7.91;45.13;101215.35;107273;1257;108294;-68
2024/01/17 09:39:33;;;;;;;28.20;15.20;;;;;;;8.23;43.70;101212.11;107182;1257;107770;-69
2024/01/17 09:42:05;;;;;;;21.30;13.50;;;;;;;8.51;44.34;101211.70;107246;1260;99198;-68
2024/01/17 09:44:36;;;;;;;31.60;12.70;;;;;;;8.81;43.64;101209.67;107282;1257;99769;-69
2024/01/17 09:47:06;;;;;;;20.20;13.50;;;;;;;9.23;43.77;101203.16;107250;1256;112069;-69
2024/01/17 09:49:35;;;;;;;26.10;14.20;;;;;;;9.62;42.90;101199.48;107214;1257;108451;-67
2024/01/17 09:52:05;;;;;;;26.30;14.80;;;;;;;10.06;43.16;101194.63;107168;1257;107839;-69
2024/01/17 09:54:43;;;;;;;23.40;13.60;;;;;;;10.46;42.19;101197.57;107203;1256;99180;-69
2024/01/17 09:57:22;;;;;;;23.50;13.70;;;;;;;10.73;41.48;101189.63;107096;1256;99249;-69
2024/01/17 10:00:09;;;;;;;23.40;14.00;;;;;;;11.20;41.05;101191.09;107267;1260;112159;-69
2024/01/17 10:02:42;;;;;;;25.50;13.60;;;;;;;11.54;40.34;101181.57;107282;1258;110227;-69
2024/01/17 10:05:12;;;;;;;23.50;14.30;;;;;;;11.76;36.89;101175.89;107286;1257;105827;-68
2024/01/17 10:07:40;;;;;;;22.10;13.80;;;;;;;11.61;38.01;101171.96;107201;1256;99250;-67
2024/01/17 10:10:09;;;;;;;23.90;14.70;;;;;;;11.92;37.96;101167.33;107265;1257;99157;-69
2024/01/17 10:12:38;;;;;;;22.50;14.30;;;;;;;12.37;38.43;101159.92;107289;1259;113631;-69
2024/01/17 10:15:11;;;;;;;36.50;22.80;;;;;;;12.86;37.70;101158.59;107260;1257;106995;-69
2024/01/17 10:17:40;;;;;;;27.90;13.50;;;;;;;13.41;37.63;101147.21;107157;1258;108058;-68
2024/01/17 10:20:09;;;;;;;22.00;13.50;;;;;;;13.91;37.57;101150.25;107266;1256;99202;-69
2024/01/17 10:22:38;;;;;;;24.50;14.40;;;;;;;14.31;36.63;101147.98;107293;1256;99091;-68
2024/01/17 10:25:08;;;;;;;21.40;13.90;;;;;;;14.49;34.81;101140.82;107174;1256;113361;-68
2024/01/17 10:27:36;;;;;;;26.10;14.60;;;;;;;14.65;34.66;101139.05;107116;1257;107292;-68
2024/01/17 10:30:05;;;;;;;27.10;14.40;;;;;;;14.96;34.42;101133.79;107196;1257;106735;-68
2024/01/17 10:32:34;;;;;;;19.50;12.50;;;;;;;15.20;33.59;101132.02;107268;1257;99201;-68
2024/01/17 10:35:07;;;;;;;17.80;11.90;;;;;;;15.59;33.81;101129.56;107250;1257;99096;-69
2024/01/17 10:37:35;;;;;;;17.10;11.20;;;;;;;16.03;34.06;101119.94;107292;1257;112386;-68
2024/01/17 10:40:11;;;;;;;14.50;10.60;;;;;;;16.25;31.07;101118.08;107329;1257;108281;-68
2024/01/17 10:42:40;;;;;;;16.60;10.40;;;;;;;16.11;30.73;101115.05;107299;1257;108142;-68
2024/01/17 10:45:21;;;;;;;16.60;11.50;;;;;;;16.13;30.56;101110.86;107247;1256;99290;-69
2024/01/17 10:47:49;;;;;;;17.60;11.20;;;;;;;16.20;30.11;101103.98;107295;1259;99736;-68
2024/01/17 10:50:18;;;;;;;14.90;10.30;;;;;;;16.44;31.23;101101.77;107195;1256;112503;-69
2024/01/17 10:52:48;;;;;;;13.80;10.30;;;;;;;16.89;31.23;101092.91;107185;1257;107885;-67
2024/01/17 10:55:21;;;;;;;18.30;13.50;;;;;;;17.29;30.01;101085.77;107319;1257;106889;-69
2024/01/17 10:57:54;;;;;;;15.60;8.90;;;;;;;17.19;28.91;101080.01;107262;1257;99096;-69
2024/01/17 11:00:29;;;;;;;;;;;;;;;17.00;28.67;101077.55;107215;1257;99166;-69
2024/01/17 11:03:00;;;;;;;14.60;9.70;;;;;;;16.79;27.55;101074.27;107109;1256;113148;-69
2024/01/17 11:05:32;;;;;;;14.70;9.90;;;;;;;16.49;27.09;101071.20;107218;1257;108458;-69